Terminal Aerodrome Forecast
Issued by NWS Louisville, KY

Home | Current Version | Previous Version | Text Only | Print | Product List | Glossary On
Versions: 1 2 3 4 5 6 7 8 9 10 11 12 13 14 15 16 17 18
000
FTUS43 KLMK 061700
TAFBWG
TAF
KBWG 061727Z 0618/0718 22008KT P6SM VCSH SCT025 BKN040
     FM070300 20004KT P6SM FEW250
     FM071000 20005KT 5SM BR VCSH SCT035
     FM071300 21010G17KT P6SM VCSH BKN035=

USA.gov is the U.S. government's official web portal to all federal, state and local government web resources and services.